sensor_id;sensor_type;location;lat;lon;timestamp;P1;durP1;ratioP1;P2;durP2;ratioP2
37049;SDS011;22958;51.232;6.826;2023-04-12T00:01:12;14.37;;;3.00;;
37049;SDS011;22958;51.232;6.826;2023-04-12T00:03:38;12.93;;;2.00;;
37049;SDS011;22958;51.232;6.826;2023-04-12T00:06:03;17.10;;;2.90;;
37049;SDS011;22958;51.232;6.826;2023-04-12T00:08:31;11.93;;;2.03;;
37049;SDS011;22958;51.232;6.826;2023-04-12T00:10:58;7.70;;;2.10;;
37049;SDS011;22958;51.232;6.826;2023-04-12T00:13:24;11.43;;;2.30;;
37049;SDS011;22958;51.232;6.826;2023-04-12T00:15:50;11.47;;;2.17;;
37049;SDS011;22958;51.232;6.826;2023-04-12T00:18:16;19.33;;;2.80;;
37049;SDS011;22958;51.232;6.826;2023-04-12T00:20:41;14.90;;;2.83;;
37049;SDS011;22958;51.232;6.826;2023-04-12T00:23:07;21.53;;;3.17;;
37049;SDS011;22958;51.232;6.826;2023-04-12T00:25:34;16.23;;;2.78;;
37049;SDS011;22958;51.232;6.826;2023-04-12T00:28:00;15.25;;;2.80;;
37049;SDS011;22958;51.232;6.826;2023-04-12T00:30:26;10.83;;;3.40;;
37049;SDS011;22958;51.232;6.826;2023-04-12T00:32:52;12.10;;;2.77;;
37049;SDS011;22958;51.232;6.826;2023-04-12T00:35:17;12.30;;;2.10;;
37049;SDS011;22958;51.232;6.826;2023-04-12T00:37:43;17.50;;;2.80;;
37049;SDS011;22958;51.232;6.826;2023-04-12T00:40:08;11.53;;;3.10;;
37049;SDS011;22958;51.232;6.826;2023-04-12T00:42:35;13.75;;;2.47;;
37049;SDS011;22958;51.232;6.826;2023-04-12T00:45:01;9.85;;;2.38;;
37049;SDS011;22958;51.232;6.826;2023-04-12T00:47:27;19.83;;;2.97;;
37049;SDS011;22958;51.232;6.826;2023-04-12T00:49:53;17.77;;;3.55;;
37049;SDS011;22958;51.232;6.826;2023-04-12T00:52:19;16.23;;;2.67;;
37049;SDS011;22958;51.232;6.826;2023-04-12T00:54:46;14.85;;;2.33;;
37049;SDS011;22958;51.232;6.826;2023-04-12T00:57:12;16.10;;;2.53;;
37049;SDS011;22958;51.232;6.826;2023-04-12T00:59:38;11.13;;;2.13;;
37049;SDS011;22958;51.232;6.826;2023-04-12T01:02:03;19.10;;;2.47;;
37049;SDS011;22958;51.232;6.826;2023-04-12T01:04:29;21.50;;;3.63;;
37049;SDS011;22958;51.232;6.826;2023-04-12T01:09:49;12.10;;;3.03;;
37049;SDS011;22958;51.232;6.826;2023-04-12T01:12:39;17.02;;;2.60;;
37049;SDS011;22958;51.232;6.826;2023-04-12T01:15:31;16.98;;;2.72;;
37049;SDS011;22958;51.232;6.826;2023-04-12T01:18:05;14.90;;;2.65;;
37049;SDS011;22958;51.232;6.826;2023-04-12T01:20:56;13.88;;;3.10;;
37049;SDS011;22958;51.232;6.826;2023-04-12T01:29:07;18.88;;;3.30;;
37049;SDS011;22958;51.232;6.826;2023-04-12T01:31:35;20.02;;;3.20;;
37049;SDS011;22958;51.232;6.826;2023-04-12T01:34:03;23.15;;;3.97;;
37049;SDS011;22958;51.232;6.826;2023-04-12T01:36:31;15.88;;;3.13;;
37049;SDS011;22958;51.232;6.826;2023-04-12T01:38:58;11.35;;;3.05;;
37049;SDS011;22958;51.232;6.826;2023-04-12T01:41:24;14.27;;;2.88;;
37049;SDS011;22958;51.232;6.826;2023-04-12T01:43:50;16.63;;;3.00;;
37049;SDS011;22958;51.232;6.826;2023-04-12T01:46:16;18.87;;;3.20;;
37049;SDS011;22958;51.232;6.826;2023-04-12T01:48:47;17.55;;;3.30;;
37049;SDS011;22958;51.232;6.826;2023-04-12T01:51:18;10.93;;;2.67;;
37049;SDS011;22958;51.232;6.826;2023-04-12T01:53:54;11.15;;;2.53;;
37049;SDS011;22958;51.232;6.826;2023-04-12T01:56:23;14.02;;;2.47;;
37049;SDS011;22958;51.232;6.826;2023-04-12T01:58:53;8.85;;;2.05;;
37049;SDS011;22958;51.232;6.826;2023-04-12T02:01:21;8.25;;;2.03;;
37049;SDS011;22958;51.232;6.826;2023-04-12T02:03:47;8.60;;;2.35;;
37049;SDS011;22958;51.232;6.826;2023-04-12T02:06:14;16.98;;;2.55;;
37049;SDS011;22958;51.232;6.826;2023-04-12T02:08:42;11.55;;;2.10;;
37049;SDS011;22958;51.232;6.826;2023-04-12T02:11:09;13.20;;;2.23;;
37049;SDS011;22958;51.232;6.826;2023-04-12T02:13:35;13.13;;;2.58;;
37049;SDS011;22958;51.232;6.826;2023-04-12T02:16:00;14.33;;;2.97;;
37049;SDS011;22958;51.232;6.826;2023-04-12T02:18:26;13.10;;;2.50;;
37049;SDS011;22958;51.232;6.826;2023-04-12T02:20:52;12.55;;;3.17;;
37049;SDS011;22958;51.232;6.826;2023-04-12T02:23:18;10.57;;;2.67;;
37049;SDS011;22958;51.232;6.826;2023-04-12T02:25:44;13.47;;;2.50;;
37049;SDS011;22958;51.232;6.826;2023-04-12T02:28:10;10.32;;;2.97;;
37049;SDS011;22958;51.232;6.826;2023-04-12T02:30:37;21.65;;;3.25;;
37049;SDS011;22958;51.232;6.826;2023-04-12T02:33:02;11.67;;;2.80;;
37049;SDS011;22958;51.232;6.826;2023-04-12T02:35:33;15.48;;;3.22;;
37049;SDS011;22958;51.232;6.826;2023-04-12T02:40:27;14.25;;;3.15;;
37049;SDS011;22958;51.232;6.826;2023-04-12T02:42:53;13.38;;;3.00;;
37049;SDS011;22958;51.232;6.826;2023-04-12T02:45:19;16.03;;;3.30;;
37049;SDS011;22958;51.232;6.826;2023-04-12T02:47:44;19.73;;;3.30;;
37049;SDS011;22958;51.232;6.826;2023-04-12T02:50:10;15.83;;;3.60;;
37049;SDS011;22958;51.232;6.826;2023-04-12T02:52:35;12.60;;;2.70;;
37049;SDS011;22958;51.232;6.826;2023-04-12T02:55:01;12.87;;;2.87;;
37049;SDS011;22958;51.232;6.826;2023-04-12T02:57:27;8.90;;;2.43;;
37049;SDS011;22958;51.232;6.826;2023-04-12T02:59:53;9.67;;;2.40;;
37049;SDS011;22958;51.232;6.826;2023-04-12T03:02:19;10.73;;;2.25;;
37049;SDS011;22958;51.232;6.826;2023-04-12T03:04:45;14.27;;;2.47;;
37049;SDS011;22958;51.232;6.826;2023-04-12T03:07:17;17.35;;;3.30;;
37049;SDS011;22958;51.232;6.826;2023-04-12T03:09:44;13.30;;;3.00;;
37049;SDS011;22958;51.232;6.826;2023-04-12T03:14:36;10.45;;;2.60;;
37049;SDS011;22958;51.232;6.826;2023-04-12T03:17:01;12.80;;;2.40;;
37049;SDS011;22958;51.232;6.826;2023-04-12T03:19:27;11.07;;;2.27;;
37049;SDS011;22958;51.232;6.826;2023-04-12T03:21:54;14.05;;;2.40;;
37049;SDS011;22958;51.232;6.826;2023-04-12T03:24:19;16.10;;;2.83;;
37049;SDS011;22958;51.232;6.826;2023-04-12T03:26:45;15.53;;;2.63;;
37049;SDS011;22958;51.232;6.826;2023-04-12T03:29:10;11.43;;;2.30;;
37049;SDS011;22958;51.232;6.826;2023-04-12T03:31:36;16.07;;;2.40;;
37049;SDS011;22958;51.232;6.826;2023-04-12T03:34:02;15.73;;;2.63;;
37049;SDS011;22958;51.232;6.826;2023-04-12T03:36:28;10.00;;;2.33;;
37049;SDS011;22958;51.232;6.826;2023-04-12T03:38:54;10.18;;;2.55;;
37049;SDS011;22958;51.232;6.826;2023-04-12T03:41:23;18.70;;;2.40;;
37049;SDS011;22958;51.232;6.826;2023-04-12T03:43:49;10.07;;;2.30;;
37049;SDS011;22958;51.232;6.826;2023-04-12T03:46:14;11.23;;;2.70;;
37049;SDS011;22958;51.232;6.826;2023-04-12T03:48:40;12.77;;;2.10;;
37049;SDS011;22958;51.232;6.826;2023-04-12T03:51:07;10.20;;;1.97;;
37049;SDS011;22958;51.232;6.826;2023-04-12T03:53:36;9.10;;;2.33;;
37049;SDS011;22958;51.232;6.826;2023-04-12T03:56:02;7.45;;;2.47;;
37049;SDS011;22958;51.232;6.826;2023-04-12T03:58:27;9.37;;;2.50;;
37049;SDS011;22958;51.232;6.826;2023-04-12T04:00:53;10.20;;;2.67;;
37049;SDS011;22958;51.232;6.826;2023-04-12T04:03:18;13.10;;;3.13;;
37049;SDS011;22958;51.232;6.826;2023-04-12T04:05:46;14.05;;;2.22;;
37049;SDS011;22958;51.232;6.826;2023-04-12T04:08:12;12.43;;;2.43;;
37049;SDS011;22958;51.232;6.826;2023-04-12T04:10:38;14.40;;;2.37;;
37049;SDS011;22958;51.232;6.826;2023-04-12T04:13:03;21.43;;;2.60;;
37049;SDS011;22958;51.232;6.826;2023-04-12T04:15:29;6.67;;;2.03;;
37049;SDS011;22958;51.232;6.826;2023-04-12T04:17:54;9.50;;;2.27;;
37049;SDS011;22958;51.232;6.826;2023-04-12T04:20:20;7.37;;;2.10;;
37049;SDS011;22958;51.232;6.826;2023-04-12T04:22:45;10.67;;;2.00;;
37049;SDS011;22958;51.232;6.826;2023-04-12T04:25:17;8.95;;;1.98;;
37049;SDS011;22958;51.232;6.826;2023-04-12T04:27:43;9.10;;;1.60;;
37049;SDS011;22958;51.232;6.826;2023-04-12T04:30:10;11.35;;;2.10;;
37049;SDS011;22958;51.232;6.826;2023-04-12T04:32:36;12.48;;;2.20;;
37049;SDS011;22958;51.232;6.826;2023-04-12T04:35:05;10.95;;;2.63;;
37049;SDS011;22958;51.232;6.826;2023-04-12T04:37:31;12.52;;;2.72;;
37049;SDS011;22958;51.232;6.826;2023-04-12T04:39:59;13.27;;;2.50;;
37049;SDS011;22958;51.232;6.826;2023-04-12T04:44:53;13.55;;;2.10;;
37049;SDS011;22958;51.232;6.826;2023-04-12T04:47:27;7.38;;;1.90;;
37049;SDS011;22958;51.232;6.826;2023-04-12T04:49:54;10.68;;;2.15;;
37049;SDS011;22958;51.232;6.826;2023-04-12T04:52:23;14.48;;;3.40;;
37049;SDS011;22958;51.232;6.826;2023-04-12T04:54:49;5.87;;;2.00;;
37049;SDS011;22958;51.232;6.826;2023-04-12T04:57:15;8.03;;;2.90;;
37049;SDS011;22958;51.232;6.826;2023-04-12T04:59:40;9.57;;;2.53;;
37049;SDS011;22958;51.232;6.826;2023-04-12T05:02:06;13.47;;;2.73;;
37049;SDS011;22958;51.232;6.826;2023-04-12T05:04:31;12.73;;;2.87;;
37049;SDS011;22958;51.232;6.826;2023-04-12T05:06:57;11.30;;;2.90;;
37049;SDS011;22958;51.232;6.826;2023-04-12T05:09:22;14.63;;;3.57;;
37049;SDS011;22958;51.232;6.826;2023-04-12T05:11:48;14.23;;;3.90;;
37049;SDS011;22958;51.232;6.826;2023-04-12T05:14:13;13.47;;;3.40;;
37049;SDS011;22958;51.232;6.826;2023-04-12T05:16:39;13.83;;;3.10;;
37049;SDS011;22958;51.232;6.826;2023-04-12T05:19:05;14.63;;;3.43;;
37049;SDS011;22958;51.232;6.826;2023-04-12T05:21:31;8.57;;;3.40;;
37049;SDS011;22958;51.232;6.826;2023-04-12T05:23:57;8.75;;;2.88;;
37049;SDS011;22958;51.232;6.826;2023-04-12T05:26:23;10.57;;;3.00;;
37049;SDS011;22958;51.232;6.826;2023-04-12T05:28:48;12.13;;;3.37;;
37049;SDS011;22958;51.232;6.826;2023-04-12T05:31:14;15.50;;;3.73;;
37049;SDS011;22958;51.232;6.826;2023-04-12T05:33:39;13.20;;;3.17;;
37049;SDS011;22958;51.232;6.826;2023-04-12T05:36:05;10.47;;;3.40;;
37049;SDS011;22958;51.232;6.826;2023-04-12T05:38:31;18.47;;;4.53;;
37049;SDS011;22958;51.232;6.826;2023-04-12T05:40:56;18.50;;;4.00;;
37049;SDS011;22958;51.232;6.826;2023-04-12T05:43:22;9.63;;;3.30;;
37049;SDS011;22958;51.232;6.826;2023-04-12T05:45:49;10.57;;;3.37;;
37049;SDS011;22958;51.232;6.826;2023-04-12T05:48:15;17.50;;;3.53;;
37049;SDS011;22958;51.232;6.826;2023-04-12T05:50:40;14.03;;;3.60;;
37049;SDS011;22958;51.232;6.826;2023-04-12T05:53:06;13.93;;;3.73;;
37049;SDS011;22958;51.232;6.826;2023-04-12T05:55:32;15.70;;;3.50;;
37049;SDS011;22958;51.232;6.826;2023-04-12T05:57:57;12.40;;;3.47;;
37049;SDS011;22958;51.232;6.826;2023-04-12T06:00:23;10.37;;;3.30;;
37049;SDS011;22958;51.232;6.826;2023-04-12T06:02:48;15.57;;;4.13;;
37049;SDS011;22958;51.232;6.826;2023-04-12T06:05:15;7.60;;;3.42;;
37049;SDS011;22958;51.232;6.826;2023-04-12T06:07:41;12.75;;;3.60;;
37049;SDS011;22958;51.232;6.826;2023-04-12T06:10:10;9.50;;;3.17;;
37049;SDS011;22958;51.232;6.826;2023-04-12T06:12:37;14.43;;;3.30;;
37049;SDS011;22958;51.232;6.826;2023-04-12T06:15:02;13.80;;;3.57;;
37049;SDS011;22958;51.232;6.826;2023-04-12T06:17:28;9.60;;;3.47;;
37049;SDS011;22958;51.232;6.826;2023-04-12T06:19:54;9.37;;;3.97;;
37049;SDS011;22958;51.232;6.826;2023-04-12T06:22:19;13.63;;;3.80;;
37049;SDS011;22958;51.232;6.826;2023-04-12T06:24:45;7.73;;;3.50;;
37049;SDS011;22958;51.232;6.826;2023-04-12T06:27:10;12.63;;;3.27;;
37049;SDS011;22958;51.232;6.826;2023-04-12T06:29:36;11.30;;;3.90;;
37049;SDS011;22958;51.232;6.826;2023-04-12T06:32:01;8.90;;;3.80;;
37049;SDS011;22958;51.232;6.826;2023-04-12T06:34:27;12.50;;;3.30;;
37049;SDS011;22958;51.232;6.826;2023-04-12T06:36:53;10.43;;;3.20;;
37049;SDS011;22958;51.232;6.826;2023-04-12T06:39:18;9.53;;;3.30;;
37049;SDS011;22958;51.232;6.826;2023-04-12T06:41:44;13.93;;;3.40;;
37049;SDS011;22958;51.232;6.826;2023-04-12T06:44:14;7.63;;;3.40;;
37049;SDS011;22958;51.232;6.826;2023-04-12T06:46:40;13.05;;;3.47;;
37049;SDS011;22958;51.232;6.826;2023-04-12T06:49:06;13.37;;;3.33;;
37049;SDS011;22958;51.232;6.826;2023-04-12T06:51:32;9.23;;;3.73;;
37049;SDS011;22958;51.232;6.826;2023-04-12T06:53:59;6.57;;;3.40;;
37049;SDS011;22958;51.232;6.826;2023-04-12T06:56:24;10.23;;;3.90;;
37049;SDS011;22958;51.232;6.826;2023-04-12T06:58:50;9.17;;;3.70;;
37049;SDS011;22958;51.232;6.826;2023-04-12T07:01:15;12.30;;;4.07;;
37049;SDS011;22958;51.232;6.826;2023-04-12T07:03:41;13.93;;;4.00;;
37049;SDS011;22958;51.232;6.826;2023-04-12T07:06:07;7.63;;;3.53;;
37049;SDS011;22958;51.232;6.826;2023-04-12T07:08:33;8.97;;;4.17;;
37049;SDS011;22958;51.232;6.826;2023-04-12T07:11:00;10.70;;;3.63;;
37049;SDS011;22958;51.232;6.826;2023-04-12T07:13:26;7.40;;;4.10;;
37049;SDS011;22958;51.232;6.826;2023-04-12T07:15:51;8.87;;;3.13;;
37049;SDS011;22958;51.232;6.826;2023-04-12T07:18:18;9.07;;;3.85;;
37049;SDS011;22958;51.232;6.826;2023-04-12T07:20:47;8.37;;;3.97;;
37049;SDS011;22958;51.232;6.826;2023-04-12T07:23:14;12.60;;;4.10;;
37049;SDS011;22958;51.232;6.826;2023-04-12T07:25:40;11.93;;;3.80;;
37049;SDS011;22958;51.232;6.826;2023-04-12T07:28:05;10.50;;;3.73;;
37049;SDS011;22958;51.232;6.826;2023-04-12T07:30:31;9.23;;;3.57;;
37049;SDS011;22958;51.232;6.826;2023-04-12T07:32:56;8.57;;;3.50;;
37049;SDS011;22958;51.232;6.826;2023-04-12T07:35:24;7.57;;;3.90;;
37049;SDS011;22958;51.232;6.826;2023-04-12T07:37:50;6.97;;;3.50;;
37049;SDS011;22958;51.232;6.826;2023-04-12T07:40:18;14.02;;;3.20;;
37049;SDS011;22958;51.232;6.826;2023-04-12T07:42:44;8.23;;;3.45;;
37049;SDS011;22958;51.232;6.826;2023-04-12T07:45:10;11.83;;;4.00;;
37049;SDS011;22958;51.232;6.826;2023-04-12T07:47:35;5.67;;;3.03;;
37049;SDS011;22958;51.232;6.826;2023-04-12T07:50:01;10.73;;;3.70;;
37049;SDS011;22958;51.232;6.826;2023-04-12T07:54:53;10.45;;;3.80;;
37049;SDS011;22958;51.232;6.826;2023-04-12T07:57:19;8.93;;;3.43;;
37049;SDS011;22958;51.232;6.826;2023-04-12T07:59:45;8.80;;;3.93;;
37049;SDS011;22958;51.232;6.826;2023-04-12T08:02:11;8.83;;;3.77;;
37049;SDS011;22958;51.232;6.826;2023-04-12T08:04:36;8.37;;;3.80;;
37049;SDS011;22958;51.232;6.826;2023-04-12T08:07:02;10.87;;;4.00;;
37049;SDS011;22958;51.232;6.826;2023-04-12T08:09:28;6.57;;;3.37;;
37049;SDS011;22958;51.232;6.826;2023-04-12T08:11:54;14.45;;;4.32;;
37049;SDS011;22958;51.232;6.826;2023-04-12T08:14:20;8.23;;;4.10;;
37049;SDS011;22958;51.232;6.826;2023-04-12T08:16:46;9.03;;;3.90;;
37049;SDS011;22958;51.232;6.826;2023-04-12T08:19:12;9.88;;;3.55;;
37049;SDS011;22958;51.232;6.826;2023-04-12T08:21:38;7.10;;;3.80;;
37049;SDS011;22958;51.232;6.826;2023-04-12T08:24:04;11.37;;;4.10;;
37049;SDS011;22958;51.232;6.826;2023-04-12T08:26:30;11.67;;;3.63;;
37049;SDS011;22958;51.232;6.826;2023-04-12T08:28:55;6.80;;;3.63;;
37049;SDS011;22958;51.232;6.826;2023-04-12T08:31:22;10.68;;;3.58;;
37049;SDS011;22958;51.232;6.826;2023-04-12T08:33:48;6.80;;;3.43;;
37049;SDS011;22958;51.232;6.826;2023-04-12T08:36:13;10.80;;;3.63;;
37049;SDS011;22958;51.232;6.826;2023-04-12T08:38:39;10.50;;;3.90;;
37049;SDS011;22958;51.232;6.826;2023-04-12T08:41:05;10.67;;;3.73;;
37049;SDS011;22958;51.232;6.826;2023-04-12T08:43:31;8.85;;;3.95;;
37049;SDS011;22958;51.232;6.826;2023-04-12T08:45:58;5.78;;;3.63;;
37049;SDS011;22958;51.232;6.826;2023-04-12T08:48:24;7.93;;;3.40;;
37049;SDS011;22958;51.232;6.826;2023-04-12T08:50:51;10.00;;;3.60;;
37049;SDS011;22958;51.232;6.826;2023-04-12T08:55:44;6.43;;;3.33;;
37049;SDS011;22958;51.232;6.826;2023-04-12T08:58:10;5.67;;;3.20;;
37049;SDS011;22958;51.232;6.826;2023-04-12T09:00:38;9.13;;;3.42;;
37049;SDS011;22958;51.232;6.826;2023-04-12T09:03:06;8.05;;;3.75;;
37049;SDS011;22958;51.232;6.826;2023-04-12T09:05:32;8.00;;;3.60;;
37049;SDS011;22958;51.232;6.826;2023-04-12T09:07:57;9.30;;;3.87;;
37049;SDS011;22958;51.232;6.826;2023-04-12T09:10:30;9.73;;;4.57;;
37049;SDS011;22958;51.232;6.826;2023-04-12T09:13:00;8.77;;;4.00;;
37049;SDS011;22958;51.232;6.826;2023-04-12T09:15:28;11.85;;;4.72;;
37049;SDS011;22958;51.232;6.826;2023-04-12T09:18:06;9.65;;;3.65;;
37049;SDS011;22958;51.232;6.826;2023-04-12T09:20:34;8.40;;;4.57;;
37049;SDS011;22958;51.232;6.826;2023-04-12T09:23:00;12.65;;;4.43;;
37049;SDS011;22958;51.232;6.826;2023-04-12T09:25:43;6.97;;;4.47;;
37049;SDS011;22958;51.232;6.826;2023-04-12T09:28:16;11.20;;;5.60;;
37049;SDS011;22958;51.232;6.826;2023-04-12T09:30:44;11.82;;;5.10;;
37049;SDS011;22958;51.232;6.826;2023-04-12T09:33:15;10.40;;;5.30;;
37049;SDS011;22958;51.232;6.826;2023-04-12T09:35:41;16.73;;;5.65;;
37049;SDS011;22958;51.232;6.826;2023-04-12T09:38:07;10.90;;;5.70;;
37049;SDS011;22958;51.232;6.826;2023-04-12T09:40:36;7.20;;;5.30;;
37049;SDS011;22958;51.232;6.826;2023-04-12T09:43:02;8.88;;;5.35;;
37049;SDS011;22958;51.232;6.826;2023-04-12T09:45:28;11.60;;;6.03;;
37049;SDS011;22958;51.232;6.826;2023-04-12T09:47:56;9.80;;;5.68;;
37049;SDS011;22958;51.232;6.826;2023-04-12T09:50:22;8.27;;;4.67;;
37049;SDS011;22958;51.232;6.826;2023-04-12T09:52:49;9.50;;;5.15;;
37049;SDS011;22958;51.232;6.826;2023-04-12T09:55:15;7.60;;;4.27;;
37049;SDS011;22958;51.232;6.826;2023-04-12T09:57:43;8.07;;;5.15;;
37049;SDS011;22958;51.232;6.826;2023-04-12T10:00:09;12.18;;;6.05;;
37049;SDS011;22958;51.232;6.826;2023-04-12T10:02:41;11.98;;;6.75;;
37049;SDS011;22958;51.232;6.826;2023-04-12T10:05:09;9.90;;;5.90;;
37049;SDS011;22958;51.232;6.826;2023-04-12T10:07:40;8.15;;;6.32;;
37049;SDS011;22958;51.232;6.826;2023-04-12T10:10:06;15.63;;;6.55;;
37049;SDS011;22958;51.232;6.826;2023-04-12T10:12:40;10.98;;;6.18;;
37049;SDS011;22958;51.232;6.826;2023-04-12T10:15:07;13.45;;;6.38;;
37049;SDS011;22958;51.232;6.826;2023-04-12T10:17:42;10.50;;;6.18;;
37049;SDS011;22958;51.232;6.826;2023-04-12T10:20:12;7.00;;;4.95;;
37049;SDS011;22958;51.232;6.826;2023-04-12T10:25:18;8.27;;;5.10;;
37049;SDS011;22958;51.232;6.826;2023-04-12T10:27:45;9.23;;;4.78;;
37049;SDS011;22958;51.232;6.826;2023-04-12T10:30:27;12.05;;;5.68;;
37049;SDS011;22958;51.232;6.826;2023-04-12T10:33:09;6.40;;;4.40;;
37049;SDS011;22958;51.232;6.826;2023-04-12T10:38:23;5.28;;;1.95;;
37049;SDS011;22958;51.232;6.826;2023-04-12T10:49:11;1.58;;;1.00;;
37049;SDS011;22958;51.232;6.826;2023-04-12T10:51:37;4.97;;;1.20;;
37049;SDS011;22958;51.232;6.826;2023-04-12T10:56:35;3.38;;;1.40;;
37049;SDS011;22958;51.232;6.826;2023-04-12T10:59:02;4.07;;;1.67;;
37049;SDS011;22958;51.232;6.826;2023-04-12T11:01:29;3.00;;;2.00;;
37049;SDS011;22958;51.232;6.826;2023-04-12T11:04:11;4.38;;;2.00;;
37049;SDS011;22958;51.232;6.826;2023-04-12T11:11:49;5.15;;;2.70;;
37049;SDS011;22958;51.232;6.826;2023-04-12T11:19:32;8.35;;;2.58;;
37049;SDS011;22958;51.232;6.826;2023-04-12T11:22:08;4.90;;;2.38;;
37049;SDS011;22958;51.232;6.826;2023-04-12T11:27:08;7.25;;;2.08;;
37049;SDS011;22958;51.232;6.826;2023-04-12T11:29:34;8.55;;;2.47;;
37049;SDS011;22958;51.232;6.826;2023-04-12T11:32:03;6.50;;;2.50;;
37049;SDS011;22958;51.232;6.826;2023-04-12T11:34:31;10.00;;;2.72;;
37049;SDS011;22958;51.232;6.826;2023-04-12T11:36:58;8.43;;;2.17;;
37049;SDS011;22958;51.232;6.826;2023-04-12T11:39:24;8.85;;;1.85;;
37049;SDS011;22958;51.232;6.826;2023-04-12T11:44:16;9.55;;;1.90;;
37049;SDS011;22958;51.232;6.826;2023-04-12T11:46:43;6.03;;;2.20;;
37049;SDS011;22958;51.232;6.826;2023-04-12T11:49:09;9.63;;;1.77;;
37049;SDS011;22958;51.232;6.826;2023-04-12T11:51:43;4.28;;;1.58;;
37049;SDS011;22958;51.232;6.826;2023-04-12T11:54:09;6.53;;;1.60;;
37049;SDS011;22958;51.232;6.826;2023-04-12T11:56:36;10.20;;;2.60;;
37049;SDS011;22958;51.232;6.826;2023-04-12T12:01:28;12.45;;;2.10;;
37049;SDS011;22958;51.232;6.826;2023-04-12T12:03:54;5.40;;;2.03;;
37049;SDS011;22958;51.232;6.826;2023-04-12T12:06:20;6.60;;;2.08;;
37049;SDS011;22958;51.232;6.826;2023-04-12T12:08:48;6.32;;;2.28;;
37049;SDS011;22958;51.232;6.826;2023-04-12T12:11:15;6.25;;;1.95;;
37049;SDS011;22958;51.232;6.826;2023-04-12T12:13:46;9.98;;;2.60;;
37049;SDS011;22958;51.232;6.826;2023-04-12T12:16:12;6.57;;;2.35;;
37049;SDS011;22958;51.232;6.826;2023-04-12T12:18:39;12.33;;;2.40;;
37049;SDS011;22958;51.232;6.826;2023-04-12T12:21:07;7.93;;;2.65;;
37049;SDS011;22958;51.232;6.826;2023-04-12T12:23:33;10.68;;;2.28;;
37049;SDS011;22958;51.232;6.826;2023-04-12T12:26:00;9.05;;;2.72;;
37049;SDS011;22958;51.232;6.826;2023-04-12T12:28:30;10.30;;;2.38;;
37049;SDS011;22958;51.232;6.826;2023-04-12T12:31:06;8.95;;;3.30;;
37049;SDS011;22958;51.232;6.826;2023-04-12T12:33:40;8.10;;;2.67;;
37049;SDS011;22958;51.232;6.826;2023-04-12T12:36:06;9.70;;;2.65;;
37049;SDS011;22958;51.232;6.826;2023-04-12T12:38:36;13.15;;;3.13;;
37049;SDS011;22958;51.232;6.826;2023-04-12T12:41:23;9.43;;;2.63;;
37049;SDS011;22958;51.232;6.826;2023-04-12T12:43:50;12.63;;;2.58;;
37049;SDS011;22958;51.232;6.826;2023-04-12T12:48:43;12.48;;;2.65;;
37049;SDS011;22958;51.232;6.826;2023-04-12T12:51:09;19.80;;;2.85;;
37049;SDS011;22958;51.232;6.826;2023-04-12T12:53:37;16.13;;;2.42;;
37049;SDS011;22958;51.232;6.826;2023-04-12T12:56:04;8.88;;;2.38;;
37049;SDS011;22958;51.232;6.826;2023-04-12T12:58:30;10.15;;;3.00;;
37049;SDS011;22958;51.232;6.826;2023-04-12T13:00:56;16.03;;;3.47;;
37049;SDS011;22958;51.232;6.826;2023-04-12T13:03:22;13.40;;;2.80;;
37049;SDS011;22958;51.232;6.826;2023-04-12T13:05:47;18.90;;;3.10;;
37049;SDS011;22958;51.232;6.826;2023-04-12T13:08:14;10.75;;;3.13;;
37049;SDS011;22958;51.232;6.826;2023-04-12T13:10:40;15.27;;;3.67;;
37049;SDS011;22958;51.232;6.826;2023-04-12T13:13:05;10.87;;;2.73;;
37049;SDS011;22958;51.232;6.826;2023-04-12T13:15:31;18.03;;;3.10;;
37049;SDS011;22958;51.232;6.826;2023-04-12T13:17:56;13.57;;;2.77;;
37049;SDS011;22958;51.232;6.826;2023-04-12T13:20:22;17.50;;;2.80;;
37049;SDS011;22958;51.232;6.826;2023-04-12T13:22:48;17.83;;;2.80;;
37049;SDS011;22958;51.232;6.826;2023-04-12T13:25:15;18.75;;;2.80;;
37049;SDS011;22958;51.232;6.826;2023-04-12T13:27:40;13.77;;;2.77;;
37049;SDS011;22958;51.232;6.826;2023-04-12T13:30:06;16.87;;;3.33;;
37049;SDS011;22958;51.232;6.826;2023-04-12T13:32:32;16.25;;;2.83;;
37049;SDS011;22958;51.232;6.826;2023-04-12T13:34:57;28.10;;;3.13;;
37049;SDS011;22958;51.232;6.826;2023-04-12T13:37:23;21.10;;;3.03;;
37049;SDS011;22958;51.232;6.826;2023-04-12T13:39:49;14.80;;;3.13;;
37049;SDS011;22958;51.232;6.826;2023-04-12T13:42:15;19.05;;;3.40;;
37049;SDS011;22958;51.232;6.826;2023-04-12T13:44:41;18.80;;;3.80;;
37049;SDS011;22958;51.232;6.826;2023-04-12T13:47:07;13.25;;;3.20;;
37049;SDS011;22958;51.232;6.826;2023-04-12T13:49:33;18.43;;;2.60;;
37049;SDS011;22958;51.232;6.826;2023-04-12T13:51:58;26.87;;;3.33;;
37049;SDS011;22958;51.232;6.826;2023-04-12T13:54:25;19.88;;;3.40;;
37049;SDS011;22958;51.232;6.826;2023-04-12T13:56:51;18.80;;;2.50;;
37049;SDS011;22958;51.232;6.826;2023-04-12T13:59:16;9.10;;;1.80;;
37049;SDS011;22958;51.232;6.826;2023-04-12T14:01:42;16.20;;;1.93;;
37049;SDS011;22958;51.232;6.826;2023-04-12T14:04:07;11.50;;;1.90;;
37049;SDS011;22958;51.232;6.826;2023-04-12T14:06:33;14.43;;;1.43;;
37049;SDS011;22958;51.232;6.826;2023-04-12T14:08:58;13.80;;;1.70;;
37049;SDS011;22958;51.232;6.826;2023-04-12T14:11:24;10.83;;;1.97;;
37049;SDS011;22958;51.232;6.826;2023-04-12T14:13:49;8.37;;;1.00;;
37049;SDS011;22958;51.232;6.826;2023-04-12T14:16:15;3.37;;;0.40;;
37049;SDS011;22958;51.232;6.826;2023-04-12T14:18:40;9.57;;;1.20;;
37049;SDS011;22958;51.232;6.826;2023-04-12T14:21:07;5.77;;;1.10;;
37049;SDS011;22958;51.232;6.826;2023-04-12T14:23:33;6.22;;;1.05;;
37049;SDS011;22958;51.232;6.826;2023-04-12T14:25:59;7.23;;;1.37;;
37049;SDS011;22958;51.232;6.826;2023-04-12T14:28:24;13.73;;;2.10;;
37049;SDS011;22958;51.232;6.826;2023-04-12T14:30:54;8.02;;;1.23;;
37049;SDS011;22958;51.232;6.826;2023-04-12T14:33:21;6.93;;;1.90;;
37049;SDS011;22958;51.232;6.826;2023-04-12T14:35:46;7.23;;;1.67;;
37049;SDS011;22958;51.232;6.826;2023-04-12T14:38:12;6.33;;;1.50;;
37049;SDS011;22958;51.232;6.826;2023-04-12T14:40:38;7.67;;;1.20;;
37049;SDS011;22958;51.232;6.826;2023-04-12T14:43:03;7.97;;;1.60;;
37049;SDS011;22958;51.232;6.826;2023-04-12T14:45:29;9.63;;;1.87;;
37049;SDS011;22958;51.232;6.826;2023-04-12T14:47:55;3.50;;;1.17;;
37049;SDS011;22958;51.232;6.826;2023-04-12T14:50:20;5.03;;;1.90;;
37049;SDS011;22958;51.232;6.826;2023-04-12T14:52:47;10.10;;;2.13;;
37049;SDS011;22958;51.232;6.826;2023-04-12T14:55:13;11.88;;;1.92;;
37049;SDS011;22958;51.232;6.826;2023-04-12T14:57:38;7.50;;;1.20;;
37049;SDS011;22958;51.232;6.826;2023-04-12T15:00:07;5.30;;;1.10;;
37049;SDS011;22958;51.232;6.826;2023-04-12T15:02:40;9.07;;;1.52;;
37049;SDS011;22958;51.232;6.826;2023-04-12T15:05:08;6.50;;;1.73;;
37049;SDS011;22958;51.232;6.826;2023-04-12T15:07:33;7.83;;;1.77;;
37049;SDS011;22958;51.232;6.826;2023-04-12T15:09:59;8.93;;;1.52;;
37049;SDS011;22958;51.232;6.826;2023-04-12T15:12:25;9.50;;;1.87;;
37049;SDS011;22958;51.232;6.826;2023-04-12T15:14:52;11.98;;;1.67;;
37049;SDS011;22958;51.232;6.826;2023-04-12T15:17:18;13.00;;;2.00;;
37049;SDS011;22958;51.232;6.826;2023-04-12T15:19:44;5.85;;;0.95;;
37049;SDS011;22958;51.232;6.826;2023-04-12T15:22:10;8.03;;;1.07;;
37049;SDS011;22958;51.232;6.826;2023-04-12T15:24:35;7.10;;;1.20;;
37049;SDS011;22958;51.232;6.826;2023-04-12T15:27:01;12.40;;;1.17;;
37049;SDS011;22958;51.232;6.826;2023-04-12T15:29:26;4.27;;;1.50;;
37049;SDS011;22958;51.232;6.826;2023-04-12T15:31:52;4.10;;;1.27;;
37049;SDS011;22958;51.232;6.826;2023-04-12T15:34:20;1.58;;;0.70;;
37049;SDS011;22958;51.232;6.826;2023-04-12T15:36:47;4.18;;;0.90;;